Sang, Michigan
Current Conditions -  °F | °C
As of 10:58 PM on Sunday 19 Oct 2014 (Local Time) from KMTC Reporting Station
Overcast Overcast  
Wind Chill: 43°   Ceiling: 11000
Heat Index: 47°   Visibility: 10mi
Dew Point: 32°   Wind: 8mph
Humidity: 56%   Direction: 190°S
Pressure: 29.95"   Gusts: NA
Location:  42.5826°N, 82.8345°W
Report Text: KMTC 200258Z AUTO 19007KT 10SM BKN110 OVC130 09/00 A2995 RMK AO2 SLP148 T00850001 57019 $
Loading
Personal Weather Stations






























Interactive Weather Map
Tropical Storm Tracking
New forecast layout! Learn more

10-Day Weather Forecast

Advertisements
Track Severe Weather on mobile